Observation data for Memphis on 09/22/2019      Previous  Date  Next       Current Mesonet Observations  Soil Data  Daily Summary Page  Observations in Plain Language
KMES 220500Z 14010KT 20/19 A2995 RMK A01 T02010191  RH  099%=      5-min Rain = 0.01
KMES 220505Z 13009KT 20/19 A2994 RMK A01 T02000190  RH  099%=      5-min Rain = 0
KMES 220510Z 13010KT 20/19 A2994 RMK A01 T02000190  RH  099%=      5-min Rain = 0
KMES 220515Z 13009KT 20/19 A2993 RMK A01 T02000190  RH  099%=      5-min Rain = 0
KMES 220520Z 13009KT 20/19 A2994 RMK A01 T02000190  RH  099%=      5-min Rain = 0
KMES 220525Z 13011KT 20/19 A2994 RMK A01 T01990190  RH  099%=      5-min Rain = 0
KMES 220530Z 14009KT 20/19 A2994 RMK A01 T01990190  RH  100%=      5-min Rain = 0
KMES 220535Z 14007KT 20/19 A2994 RMK A01 T02000190  RH  100%=      5-min Rain = 0
KMES 220540Z 14009KT 20/19 A2995 RMK A01 T02000190  RH  100%=      5-min Rain = 0
KMES 220545Z 14007KT 20/19 A2995 RMK A01 T01990190  RH  100%=      5-min Rain = 0
KMES 220550Z 14006KT 20/19 A2994 RMK A01 T01990189  RH  100%=      5-min Rain = 0
KMES 220555Z 13006KT 20/19 A2994 RMK A01 T01990190  RH  100%=      5-min Rain = 0
KMES 220600Z 14008KT 20/19 A2994 RMK A01 T01990190  RH  100%=      5-min Rain = 0
KMES 220605Z 14007KT 20/19 A2994 RMK A01 T01990190  RH  100%=      5-min Rain = 0
KMES 220610Z 14008KT 20/19 A2993 RMK A01 T02000190  RH  100%=      5-min Rain = 0.01
KMES 220615Z 14009KT 20/19 A2993 RMK A01 T02000191  RH  100%=      5-min Rain = 0
KMES 220620Z 14009KT 20/19 A2993 RMK A01 T02000190  RH  100%=      5-min Rain = 0
KMES 220625Z 14010KT 20/19 A2993 RMK A01 T02000191  RH  100%=      5-min Rain = 0
KMES 220630Z 14009KT 20/19 A2993 RMK A01 T02010191  RH  100%=      5-min Rain = 0
KMES 220635Z 14008KT 20/19 A2993 RMK A01 T02010192  RH  100%=      5-min Rain = 0
KMES 220640Z 14008KT 20/19 A2993 RMK A01 T02010192  RH  100%=      5-min Rain = 0
KMES 220645Z 15005KT 20/19 A2993 RMK A01 T02020193  RH  100%=      5-min Rain = 0
KMES 220650Z 16004KT 20/19 A2994 RMK A01 T02020193  RH  100%=      5-min Rain = 0
KMES 220655Z 17004KT 20/19 A2994 RMK A01 T02020193  RH  100%=      5-min Rain = 0
KMES 220700Z 22003KT 20/19 A2995 RMK A01 T02020193  RH  100%=      5-min Rain = 0
KMES 220705Z 21003KT 20/19 A2995 RMK A01 T02020193  RH  100%=      5-min Rain = 0
KMES 220710Z 17003KT 20/19 A2995 RMK A01 T02020193  RH  100%=      5-min Rain = 0
KMES 220715Z 15004KT 20/19 A2994 RMK A01 T02030193  RH  100%=      5-min Rain = 0
KMES 220720Z 16005KT 20/19 A2995 RMK A01 T02030193  RH  100%=      5-min Rain = 0
KMES 220725Z 17004KT 20/19 A2995 RMK A01 T02030193  RH  100%=      5-min Rain = 0
KMES 220730Z 16004KT 20/19 A2995 RMK A01 T02030194  RH  100%=      5-min Rain = 0
KMES 220735Z 17004KT 20/19 A2995 RMK A01 T02030194  RH  100%=      5-min Rain = 0
KMES 220740Z 17003KT 20/19 A2995 RMK A01 T02040194  RH  100%=      5-min Rain = 0
KMES 220745Z 16004KT 20/19 A2995 RMK A01 T02030194  RH  100%=      5-min Rain = 0
KMES 220750Z 17004KT 20/19 A2995 RMK A01 T02030194  RH  100%=      5-min Rain = 0
KMES 220755Z 17003KT 20/19 A2995 RMK A01 T02030194  RH  100%=      5-min Rain = 0
KMES 220800Z 17003KT 20/19 A2995 RMK A01 T02030193  RH  100%=      5-min Rain = 0
KMES 220805Z 18002KT 20/19 A2994 RMK A01 T02030193  RH  100%=      5-min Rain = 0
KMES 220810Z 18003KT 20/19 A2994 RMK A01 T02030193  RH  100%=      5-min Rain = 0
KMES 220815Z 17004KT 20/19 A2994 RMK A01 T02030193  RH  100%=      5-min Rain = 0
KMES 220820Z 18003KT 20/19 A2994 RMK A01 T02020193  RH  100%=      5-min Rain = 0
KMES 220825Z 19003KT 20/19 A2994 RMK A01 T02020193  RH  100%=      5-min Rain = 0
KMES 220830Z 19002KT 20/19 A2994 RMK A01 T02030193  RH  100%=      5-min Rain = 0
KMES 220835Z 18003KT 20/19 A2994 RMK A01 T02030193  RH  100%=      5-min Rain = 0
KMES 220840Z 17002KT 20/19 A2994 RMK A01 T02030193  RH  100%=      5-min Rain = 0
KMES 220845Z 19002KT 20/19 A2994 RMK A01 T02030193  RH  100%=      5-min Rain = 0
KMES 220850Z 19002KT 20/19 A2994 RMK A01 T02030193  RH  100%=      5-min Rain = 0
KMES 220855Z 20002KT 20/19 A2994 RMK A01 T02030194  RH  100%=      5-min Rain = 0
KMES 220900Z 19002KT 20/19 A2994 RMK A01 T02030194  RH  100%=      5-min Rain = 0
KMES 220905Z 16002KT 20/19 A2994 RMK A01 T02040194  RH  100%=      5-min Rain = 0
KMES 220910Z 15001KT 20/19 A2994 RMK A01 T02040194  RH  100%=      5-min Rain = 0
KMES 220915Z 16002KT 20/19 A2994 RMK A01 T02030194  RH  100%=      5-min Rain = 0
KMES 220920Z 17003KT 20/19 A2994 RMK A01 T02030194  RH  100%=      5-min Rain = 0
KMES 220925Z 18003KT 20/19 A2994 RMK A01 T02030194  RH  100%=      5-min Rain = 0
KMES 220930Z 18003KT 20/19 A2994 RMK A01 T02040194  RH  100%=      5-min Rain = 0
KMES 220935Z 17003KT 20/20 A2994 RMK A01 T02040195  RH  100%=      5-min Rain = 0
KMES 220940Z 16003KT 20/20 A2994 RMK A01 T02040195  RH  100%=      5-min Rain = 0
KMES 220945Z 16003KT 20/20 A2994 RMK A01 T02040195  RH  100%=      5-min Rain = 0
KMES 220950Z 15003KT 20/19 A2994 RMK A01 T02040194  RH  100%=      5-min Rain = 0
KMES 220955Z 16002KT 20/19 A2994 RMK A01 T02040194  RH  100%=      5-min Rain = 0
KMES 221000Z 16003KT 20/19 A2994 RMK A01 T02030194  RH  100%=      5-min Rain = 0
KMES 221005Z 17003KT 20/20 A2994 RMK A01 T02040195  RH  100%=      5-min Rain = 0
KMES 221010Z 18003KT 20/20 A2994 RMK A01 T02040195  RH  100%=      5-min Rain = 0
KMES 221015Z 20003KT 20/20 A2994 RMK A01 T02040195  RH  100%=      5-min Rain = 0
KMES 221020Z 19003KT 21/20 A2994 RMK A01 T02050195  RH  100%=      5-min Rain = 0
KMES 221025Z 18003KT 21/20 A2994 RMK A01 T02050196  RH  100%=      5-min Rain = 0
KMES 221030Z 17004KT 21/20 A2994 RMK A01 T02050196  RH  100%=      5-min Rain = 0
KMES 221035Z 18004KT 21/20 A2993 RMK A01 T02050196  RH  100%=      5-min Rain = 0
KMES 221040Z 17005KT 21/20 A2993 RMK A01 T02060196  RH  100%=      5-min Rain = 0
KMES 221045Z 17004KT 21/20 A2993 RMK A01 T02060196  RH  100%=      5-min Rain = 0
KMES 221050Z 17004KT 21/20 A2994 RMK A01 T02060197  RH  100%=      5-min Rain = 0
KMES 221055Z 17005KT 21/20 A2994 RMK A01 T02060197  RH  100%=      5-min Rain = 0
KMES 221100Z 17004KT 21/20 A2994 RMK A01 T02060197  RH  100%=      5-min Rain = 0
KMES 221105Z 17005KT 21/20 A2994 RMK A01 T02060197  RH  100%=      5-min Rain = 0
KMES 221110Z 17005KT 21/20 A2993 RMK A01 T02060197  RH  100%=      5-min Rain = 0
KMES 221115Z 17004KT 21/20 A2994 RMK A01 T02060197  RH  100%=      5-min Rain = 0
KMES 221120Z 18004KT 21/20 A2994 RMK A01 T02060197  RH  100%=      5-min Rain = 0
KMES 221125Z 17005KT 21/20 A2994 RMK A01 T02070197  RH  100%=      5-min Rain = 0
KMES 221130Z 17004KT 21/20 A2994 RMK A01 T02070198  RH  100%=      5-min Rain = 0
KMES 221135Z 17004KT 21/20 A2994 RMK A01 T02070198  RH  100%=      5-min Rain = 0
KMES 221140Z 18005KT 21/20 A2994 RMK A01 T02070198  RH  100%=      5-min Rain = 0
KMES 221145Z 18005KT 21/20 A2994 RMK A01 T02080198  RH  100%=      5-min Rain = 0
KMES 221150Z 18005KT 21/20 A2994 RMK A01 T02080198  RH  100%=      5-min Rain = 0
KMES 221155Z 18007KT 21/20 A2994 RMK A01 T02080198  RH  100%=      5-min Rain = 0
KMES 221200Z 18007KT 21/20 A2994 RMK A01 T02080198  RH  100%=      5-min Rain = 0
KMES 221205Z 18006KT 21/20 A2994 RMK A01 T02080199  RH  100%=      5-min Rain = 0
KMES 221210Z 18007KT 21/20 A2994 RMK A01 T02080199  RH  100%=      5-min Rain = 0
KMES 221215Z 17007KT 21/20 A2994 RMK A01 T02080199  RH  100%=      5-min Rain = 0
KMES 221220Z 17007KT 21/20 A2994 RMK A01 T02080198  RH  100%=      5-min Rain = 0
KMES 221225Z 18006KT 21/20 A2994 RMK A01 T02080198  RH  100%=      5-min Rain = 0
KMES 221230Z 17007KT 21/20 A2994 RMK A01 T02080198  RH  100%=      5-min Rain = 0
KMES 221235Z 18007KT 21/20 A2994 RMK A01 T02080198  RH  100%=      5-min Rain = 0
KMES 221240Z 18007KT 21/20 A2994 RMK A01 T02080198  RH  100%=      5-min Rain = 0
KMES 221245Z 19006KT 21/20 A2995 RMK A01 T02080198  RH  100%=      5-min Rain = 0
KMES 221250Z 18006KT 21/20 A2995 RMK A01 T02080198  RH  100%=      5-min Rain = 0
KMES 221255Z 19007KT 21/20 A2995 RMK A01 T02080198  RH  100%=      5-min Rain = 0
KMES 221300Z 18006KT 21/20 A2995 RMK A01 T02080198  RH  100%=      5-min Rain = 0
KMES 221305Z 19005KT 21/20 A2995 RMK A01 T02080198  RH  100%=      5-min Rain = 0
KMES 221310Z 19005KT 21/20 A2995 RMK A01 T02080199  RH  100%=      5-min Rain = 0
KMES 221315Z 19006KT 21/20 A2996 RMK A01 T02090199  RH  100%=      5-min Rain = 0
KMES 221320Z 19005KT 21/20 A2996 RMK A01 T02100200  RH  100%=      5-min Rain = 0
KMES 221325Z 19004KT 21/20 A2996 RMK A01 T02100200  RH  100%=      5-min Rain = 0
KMES 221330Z 19004KT 21/20 A2996 RMK A01 T02110201  RH  100%=      5-min Rain = 0
KMES 221335Z 19004KT 21/20 A2997 RMK A01 T02110201  RH  099%=      5-min Rain = 0
KMES 221340Z 19005KT 21/20 A2997 RMK A01 T02120201  RH  099%=      5-min Rain = 0
KMES 221345Z 19004KT 21/20 A2997 RMK A01 T02130202  RH  099%=      5-min Rain = 0
KMES 221350Z 18004KT 21/20 A2997 RMK A01 T02130202  RH  099%=      5-min Rain = 0
KMES 221355Z 21003KT 21/20 A2998 RMK A01 T02140204  RH  099%=      5-min Rain = 0
KMES 221400Z 22004KT 22/21 A2998 RMK A01 T02160205  RH  099%=      5-min Rain = 0
KMES 221405Z 23004KT 22/21 A2999 RMK A01 T02170206  RH  099%=      5-min Rain = 0
KMES 221410Z 23005KT 22/21 A2998 RMK A01 T02190207  RH  099%=      5-min Rain = 0
KMES 221415Z 22005KT 22/21 A2998 RMK A01 T02200208  RH  098%=      5-min Rain = 0
KMES 221420Z 22005KT 22/21 A2998 RMK A01 T02220208  RH  098%=      5-min Rain = 0
KMES 221425Z 22006KT 22/21 A2999 RMK A01 T02230208  RH  097%=      5-min Rain = 0
KMES 221430Z 21005KT 23/21 A2999 RMK A01 T02250210  RH  097%=      5-min Rain = 0
KMES 221435Z 21005KT 23/21 A2999 RMK A01 T02270210  RH  096%=      5-min Rain = 0
KMES 221440Z 22005KT 23/21 A2999 RMK A01 T02290210  RH  095%=      5-min Rain = 0
KMES 221445Z 21006KT 23/21 A2999 RMK A01 T02300210  RH  094%=      5-min Rain = 0
KMES 221450Z 21006KT 23/21 A2999 RMK A01 T02310207  RH  092%=      5-min Rain = 0
KMES 221455Z 21005KT 23/21 A2999 RMK A01 T02340208  RH  091%=      5-min Rain = 0
KMES 221500Z 20005KT 24/21 A2999 RMK A01 T02370208  RH  089%=      5-min Rain = 0
KMES 221505Z 21007KT 24/21 A2999 RMK A01 T02380206  RH  087%=      5-min Rain = 0
KMES 221510Z 21006KT 24/21 A2999 RMK A01 T02400205  RH  086%=      5-min Rain = 0
KMES 221515Z 23007KT 24/20 A2999 RMK A01 T02400204  RH  085%=      5-min Rain = 0
KMES 221520Z 23006KT 24/20 A2999 RMK A01 T02420203  RH  084%=      5-min Rain = 0
KMES 221525Z 23007KT 24/20 A2999 RMK A01 T02440202  RH  082%=      5-min Rain = 0
KMES 221530Z 24009KT 24/20 A2999 RMK A01 T02430200  RH  081%=      5-min Rain = 0
KMES 221535Z 24009KT 25/20 A2999 RMK A01 T02450201  RH  081%=      5-min Rain = 0
KMES 221540Z 23008KT 25/20 A2999 RMK A01 T02480203  RH  081%=      5-min Rain = 0
KMES 221545Z 23006KT 25/20 A2999 RMK A01 T02490202  RH  080%=      5-min Rain = 0
KMES 221550Z 25007G13KT 25/20 A2999 RMK A01 T02490200  RH  079%=      5-min Rain = 0
KMES 221555Z 24006KT 25/20 A2999 RMK A01 T02510204  RH  080%=      5-min Rain = 0
KMES 221600Z 25006KT 25/20 A2999 RMK A01 T02490199  RH  078%=      5-min Rain = 0
KMES 221605Z 23008KT 25/20 A2999 RMK A01 T02480200  RH  080%=      5-min Rain = 0
KMES 221610Z 23009KT 25/20 A2999 RMK A01 T02500199  RH  078%=      5-min Rain = 0
KMES 221615Z 26007KT 25/20 A2999 RMK A01 T02520197  RH  076%=      5-min Rain = 0
KMES 221620Z 25007KT 25/20 A2999 RMK A01 T02540196  RH  075%=      5-min Rain = 0
KMES 221625Z 26006KT 25/20 A2999 RMK A01 T02530196  RH  075%=      5-min Rain = 0
KMES 221630Z 26007G13KT 26/20 A2999 RMK A01 T02550197  RH  074%=      5-min Rain = 0
KMES 221635Z 28006KT 26/19 A2999 RMK A01 T02580194  RH  072%=      5-min Rain = 0
KMES 221640Z 24006KT 26/20 A2999 RMK A01 T02610196  RH  071%=      5-min Rain = 0
KMES 221645Z 25006KT 26/19 A2999 RMK A01 T02620193  RH  070%=      5-min Rain = 0
KMES 221650Z 26005KT 26/19 A2999 RMK A01 T02630192  RH  069%=      5-min Rain = 0
KMES 221655Z 26004KT 27/19 A2999 RMK A01 T02680194  RH  068%=      5-min Rain = 0
KMES 221700Z 27005KT 27/19 A2999 RMK A01 T02670192  RH  067%=      5-min Rain = 0
KMES 221705Z 31005KT 27/19 A2999 RMK A01 T02650190  RH  067%=      5-min Rain = 0
KMES 221710Z 28006KT 27/19 A2999 RMK A01 T02660185  RH  064%=      5-min Rain = 0
KMES 221715Z 29008KT 27/19 A30 RMK A01 T02660189  RH  067%=      5-min Rain = 0
KMES 221720Z 29007KT 26/19 A30 RMK A01 T02630188  RH  067%=      5-min Rain = 0
KMES 221725Z 33007KT 26/19 A30 RMK A01 T02630188  RH  067%=      5-min Rain = 0
KMES 221730Z 32007KT 26/19 A30 RMK A01 T02640187  RH  066%=      5-min Rain = 0
KMES 221735Z 31006KT 26/19 A30 RMK A01 T02640186  RH  066%=      5-min Rain = 0
KMES 221740Z 32009KT 27/19 A2999 RMK A01 T02680186  RH  064%=      5-min Rain = 0
KMES 221745Z 33007KT 27/19 A2999 RMK A01 T02670187  RH  065%=      5-min Rain = 0
KMES 221750Z 30007KT 27/18 A30 RMK A01 T02690182  RH  062%=      5-min Rain = 0
KMES 221755Z 30005KT 27/18 A30 RMK A01 T02680182  RH  063%=      5-min Rain = 0
KMES 221800Z 29006KT 27/18 A2999 RMK A01 T02690180  RH  061%=      5-min Rain = 0
KMES 221805Z 32005KT 27/18 A2999 RMK A01 T02660178  RH  062%=      5-min Rain = 0
KMES 221810Z 35004KT 27/18 A2999 RMK A01 T02690182  RH  062%=      5-min Rain = 0
KMES 221815Z 30006KT 27/19 A2999 RMK A01 T02740185  RH  062%=      5-min Rain = 0
KMES 221820Z 27006KT 28/18 A2999 RMK A01 T02750179  RH  059%=      5-min Rain = 0
KMES 221825Z 29006KT 27/18 A2999 RMK A01 T02740179  RH  059%=      5-min Rain = 0
KMES 221830Z 29007KT 27/18 A2999 RMK A01 T02730178  RH  059%=      5-min Rain = 0
KMES 221835Z 29006KT 27/18 A2999 RMK A01 T02720175  RH  058%=      5-min Rain = 0
KMES 221840Z 30006KT 27/18 A2999 RMK A01 T02720176  RH  059%=      5-min Rain = 0.01
KMES 221845Z 30006KT 27/18 A2999 RMK A01 T02740175  RH  058%=      5-min Rain = 0
KMES 221850Z 30005KT 27/18 A2999 RMK A01 T02740175  RH  058%=      5-min Rain = 0
KMES 221855Z 28003KT 27/17 A2999 RMK A01 T02740170  RH  056%=      5-min Rain = 0
KMES 221900Z 29006KT 28/17 A2999 RMK A01 T02760172  RH  056%=      5-min Rain = 0
KMES 221905Z 29005KT 28/17 A2999 RMK A01 T02750169  RH  055%=      5-min Rain = 0
KMES 221910Z 30005KT 28/17 A2999 RMK A01 T02760169  RH  055%=      5-min Rain = 0
KMES 221915Z 29003G9KT 28/17 A2999 RMK A01 T02770170  RH  055%=      5-min Rain = 0
KMES 221920Z 31006KT 28/17 A2999 RMK A01 T02780167  RH  053%=      5-min Rain = 0
KMES 221925Z 30003KT 28/17 A2999 RMK A01 T02780165  RH  053%=      5-min Rain = 0
KMES 221930Z 30006G12KT 28/17 A2999 RMK A01 T02790166  RH  053%=      5-min Rain = 0
KMES 221935Z 29006KT 28/17 A2999 RMK A01 T02790165  RH  052%=      5-min Rain = 0
KMES 221940Z 31004KT 28/17 A2998 RMK A01 T02800168  RH  053%=      5-min Rain = 0
KMES 221945Z 30005KT 28/17 A2998 RMK A01 T02810168  RH  053%=      5-min Rain = 0
KMES 221950Z 31008G13KT 28/17 A2998 RMK A01 T02820165  RH  052%=      5-min Rain = 0
KMES 221955Z 31007G13KT 28/16 A2998 RMK A01 T02810160  RH  050%=      5-min Rain = 0
KMES 222000Z 30006G11KT 28/16 A2998 RMK A01 T02790161  RH  051%=      5-min Rain = 0
KMES 222005Z 34003KT 28/16 A2998 RMK A01 T02800162  RH  051%=      5-min Rain = 0
KMES 222010Z 33006KT 28/16 A2998 RMK A01 T02810162  RH  051%=      5-min Rain = 0
KMES 222015Z 30005KT 28/16 A2998 RMK A01 T02820160  RH  050%=      5-min Rain = 0
KMES 222020Z 29005KT 28/16 A2998 RMK A01 T02840159  RH  049%=      5-min Rain = 0
KMES 222025Z 34003KT 28/16 A2998 RMK A01 T02840158  RH  048%=      5-min Rain = 0
KMES 222030Z 33005KT 28/16 A2998 RMK A01 T02840159  RH  049%=      5-min Rain = 0
KMES 222035Z 31006KT 28/15 A2998 RMK A01 T02830152  RH  047%=      5-min Rain = 0
KMES 222040Z 33003G8KT 28/16 A2997 RMK A01 T02820156  RH  048%=      5-min Rain = 0
KMES 222045Z 29005KT 29/16 A2997 RMK A01 T02860156  RH  047%=      5-min Rain = 0
KMES 222050Z 35002KT 29/16 A2997 RMK A01 T02860157  RH  048%=      5-min Rain = 0
KMES 222055Z 33004KT 29/16 A2997 RMK A01 T02870156  RH  047%=      5-min Rain = 0
KMES 222100Z 33004G9KT 29/15 A2997 RMK A01 T02870152  RH  046%=      5-min Rain = 0
KMES 222105Z 32005KT 29/15 A2997 RMK A01 T02850150  RH  046%=      5-min Rain = 0
KMES 222110Z 31004KT 29/15 A2997 RMK A01 T02860148  RH  045%=      5-min Rain = 0
KMES 222115Z 32006KT 29/15 A2997 RMK A01 T02880154  RH  046%=      5-min Rain = 0
KMES 222120Z 31006G11KT 29/15 A2997 RMK A01 T02860148  RH  045%=      5-min Rain = 0
KMES 222125Z 30005KT 29/15 A2997 RMK A01 T02860149  RH  045%=      5-min Rain = 0
KMES 222130Z 29002KT 29/15 A2997 RMK A01 T02860146  RH  044%=      5-min Rain = 0
KMES 222135Z 35004KT 29/16 A2997 RMK A01 T02880155  RH  047%=      5-min Rain = 0
KMES 222140Z 33002KT 29/15 A2997 RMK A01 T02890149  RH  045%=      5-min Rain = 0
KMES 222145Z 01005KT 29/15 A2997 RMK A01 T02880152  RH  045%=      5-min Rain = 0
KMES 222150Z 04002KT 29/15 A2997 RMK A01 T02880148  RH  044%=      5-min Rain = 0
KMES 222155Z 05003KT 29/15 A2997 RMK A01 T02870147  RH  044%=      5-min Rain = 0
KMES 222200Z 34003KT 29/15 A2997 RMK A01 T02900151  RH  045%=      5-min Rain = 0
KMES 222205Z 33005KT 29/15 A2997 RMK A01 T02910150  RH  044%=      5-min Rain = 0
KMES 222210Z 31003KT 29/14 A2997 RMK A01 T02880144  RH  043%=      5-min Rain = 0
KMES 222215Z 00005KT 29/15 A2997 RMK A01 T02900153  RH  045%=      5-min Rain = 0
KMES 222220Z 01005KT 29/15 A2997 RMK A01 T02880150  RH  045%=      5-min Rain = 0
KMES 222225Z 01003KT 29/15 A2997 RMK A01 T02860148  RH  045%=      5-min Rain = 0
KMES 222230Z 02003KT 29/15 A2997 RMK A01 T02860150  RH  046%=      5-min Rain = 0
KMES 222235Z 06003KT 29/15 A2997 RMK A01 T02850149  RH  046%=      5-min Rain = 0
KMES 222240Z 04004KT 29/15 A2997 RMK A01 T02870151  RH  046%=      5-min Rain = 0
KMES 222245Z 04005KT 29/15 A2997 RMK A01 T02870151  RH  046%=      5-min Rain = 0
KMES 222250Z 05003KT 29/15 A2997 RMK A01 T02870150  RH  045%=      5-min Rain = 0
KMES 222255Z 03003KT 29/15 A2997 RMK A01 T02890150  RH  045%=      5-min Rain = 0
KMES 222300Z 35005KT 29/15 A2997 RMK A01 T02900152  RH  045%=      5-min Rain = 0
KMES 222305Z 35004KT 29/15 A2997 RMK A01 T02880152  RH  046%=      5-min Rain = 0
KMES 222310Z 33004KT 29/15 A2997 RMK A01 T02870145  RH  044%=      5-min Rain = 0
KMES 222315Z 35003KT 29/15 A2997 RMK A01 T02860148  RH  045%=      5-min Rain = 0
KMES 222320Z 35001KT 29/15 A2998 RMK A01 T02860146  RH  044%=      5-min Rain = 0
KMES 222325Z 34002KT 29/15 A2998 RMK A01 T02870146  RH  044%=      5-min Rain = 0
KMES 222330Z 34002KT 29/15 A2998 RMK A01 T02870146  RH  044%=      5-min Rain = 0
KMES 222335Z 35003KT 29/15 A2998 RMK A01 T02880149  RH  045%=      5-min Rain = 0
KMES 222340Z 36003KT 29/15 A2998 RMK A01 T02870151  RH  046%=      5-min Rain = 0
KMES 222345Z 34003KT 29/15 A2998 RMK A01 T02860151  RH  046%=      5-min Rain = 0
KMES 222350Z 33002KT 29/15 A2998 RMK A01 T02850148  RH  045%=      5-min Rain = 0
KMES 222355Z 35003KT 28/16 A2998 RMK A01 T02840160  RH  049%=      5-min Rain = 0
KMES 230000Z 35003KT 28/16 A2998 RMK A01 T02810160  RH  050%=      5-min Rain = 0
KMES 230005Z 36002KT 28/17 A2998 RMK A01 T02800168  RH  053%=      5-min Rain = 0
KMES 230010Z 01002KT 28/17 A2998 RMK A01 T02780173  RH  055%=      5-min Rain = 0
KMES 230015Z 01003KT 28/17 A2998 RMK A01 T02760167  RH  054%=      5-min Rain = 0
KMES 230020Z 00003KT 27/17 A2998 RMK A01 T02730171  RH  057%=      5-min Rain = 0
KMES 230025Z 02003KT 27/17 A2998 RMK A01 T02680174  RH  059%=      5-min Rain = 0
KMES 230030Z 02004KT 26/17 A2998 RMK A01 T02630172  RH  060%=      5-min Rain = 0
KMES 230035Z 02004KT 26/17 A2999 RMK A01 T02580172  RH  062%=      5-min Rain = 0
KMES 230040Z 02004KT 26/17 A2999 RMK A01 T02550172  RH  063%=      5-min Rain = 0
KMES 230045Z 02004KT 25/17 A2999 RMK A01 T02510171  RH  064%=      5-min Rain = 0
KMES 230050Z 02004KT 25/17 A2999 RMK A01 T02490172  RH  065%=      5-min Rain = 0
KMES 230055Z 02004KT 25/17 A2999 RMK A01 T02460173  RH  067%=      5-min Rain = 0
KMES 230100Z 01004KT 24/17 A2999 RMK A01 T02430174  RH  069%=      5-min Rain = 0
KMES 230105Z 01004KT 24/18 A2999 RMK A01 T02390178  RH  072%=      5-min Rain = 0
KMES 230110Z 01004KT 24/18 A2999 RMK A01 T02360180  RH  075%=      5-min Rain = 0
KMES 230115Z 01004KT 23/18 A30 RMK A01 T02330182  RH  077%=      5-min Rain = 0
KMES 230120Z 01003KT 23/18 A30 RMK A01 T02310184  RH  079%=      5-min Rain = 0
KMES 230125Z 00004KT 23/18 A30 RMK A01 T02280182  RH  080%=      5-min Rain = 0
KMES 230130Z 00004KT 23/19 A30 RMK A01 T02270185  RH  081%=      5-min Rain = 0
KMES 230135Z 36004KT 23/18 A30 RMK A01 T02250184  RH  082%=      5-min Rain = 0
KMES 230140Z 35004KT 22/18 A3001 RMK A01 T02230182  RH  082%=      5-min Rain = 0
KMES 230145Z 01002KT 22/18 A3001 RMK A01 T02210181  RH  082%=      5-min Rain = 0
KMES 230150Z 00002KT 22/18 A3001 RMK A01 T02190177  RH  081%=      5-min Rain = 0
KMES 230155Z 36002KT 22/18 A3001 RMK A01 T02190176  RH  081%=      5-min Rain = 0
KMES 230200Z 36002KT 22/18 A3001 RMK A01 T02190176  RH  081%=      5-min Rain = 0
KMES 230205Z 36002KT 22/18 A3002 RMK A01 T02180176  RH  081%=      5-min Rain = 0
KMES 230210Z 35002KT 22/18 A3002 RMK A01 T02180176  RH  081%=      5-min Rain = 0
KMES 230215Z 34002KT 22/18 A3002 RMK A01 T02200175  RH  080%=      5-min Rain = 0
KMES 230220Z 33002KT 22/18 A3002 RMK A01 T02210175  RH  079%=      5-min Rain = 0
KMES 230225Z 34003KT 22/18 A3002 RMK A01 T02210176  RH  079%=      5-min Rain = 0
KMES 230230Z 34003KT 22/18 A3003 RMK A01 T02190176  RH  081%=      5-min Rain = 0
KMES 230235Z 34003KT 22/18 A3003 RMK A01 T02170176  RH  081%=      5-min Rain = 0
KMES 230240Z 34002KT 22/18 A3003 RMK A01 T02150176  RH  082%=      5-min Rain = 0
KMES 230245Z 32002KT 21/18 A3003 RMK A01 T02130175  RH  083%=      5-min Rain = 0
KMES 230250Z 32002KT 21/17 A3003 RMK A01 T02130174  RH  083%=      5-min Rain = 0
KMES 230255Z 32002KT 21/17 A3004 RMK A01 T02130174  RH  083%=      5-min Rain = 0
KMES 230300Z 32003KT 21/17 A3004 RMK A01 T02110173  RH  083%=      5-min Rain = 0
KMES 230305Z 32003KT 21/17 A3004 RMK A01 T02100173  RH  083%=      5-min Rain = 0
KMES 230310Z 33003KT 21/17 A3004 RMK A01 T02100173  RH  083%=      5-min Rain = 0
KMES 230315Z 33002KT 21/17 A3004 RMK A01 T02110173  RH  083%=      5-min Rain = 0
KMES 230320Z 33003KT 21/17 A3004 RMK A01 T02100173  RH  083%=      5-min Rain = 0
KMES 230325Z 33002KT 21/17 A3004 RMK A01 T02090173  RH  084%=      5-min Rain = 0
KMES 230330Z 32003KT 21/17 A3004 RMK A01 T02080173  RH  085%=      5-min Rain = 0
KMES 230335Z 32002KT 21/17 A3004 RMK A01 T02080173  RH  085%=      5-min Rain = 0
KMES 230340Z 32003KT 21/17 A3004 RMK A01 T02080172  RH  084%=      5-min Rain = 0
KMES 230345Z 31003KT 21/17 A3004 RMK A01 T02070172  RH  085%=      5-min Rain = 0
KMES 230350Z 31004KT 21/17 A3005 RMK A01 T02060171  RH  085%=      5-min Rain = 0
KMES 230355Z 32003KT 21/17 A3005 RMK A01 T02060170  RH  084%=      5-min Rain = 0
KMES 230400Z 32004KT 21/17 A3005 RMK A01 T02060169  RH  083%=      5-min Rain = 0
KMES 230405Z 32004KT 21/17 A3005 RMK A01 T02070168  RH  083%=      5-min Rain = 0
KMES 230410Z 32003KT 21/17 A3005 RMK A01 T02060168  RH  083%=      5-min Rain = 0
KMES 230415Z 32002KT 20/17 A3005 RMK A01 T02040167  RH  083%=      5-min Rain = 0
KMES 230420Z 32003KT 20/17 A3005 RMK A01 T02040167  RH  084%=      5-min Rain = 0
KMES 230425Z 32003KT 20/17 A3005 RMK A01 T02030167  RH  084%=      5-min Rain = 0
KMES 230430Z 32003KT 20/17 A3005 RMK A01 T02010167  RH  085%=      5-min Rain = 0
KMES 230435Z 32003KT 20/17 A3005 RMK A01 T02000167  RH  085%=      5-min Rain = 0
KMES 230440Z 33003KT 20/17 A3005 RMK A01 T01990167  RH  086%=      5-min Rain = 0
KMES 230445Z 34002KT 20/17 A3005 RMK A01 T01990166  RH  086%=      5-min Rain = 0
KMES 230450Z 33001KT 20/17 A3005 RMK A01 T01980167  RH  086%=      5-min Rain = 0
KMES 230455Z 35001KT 20/17 A3005 RMK A01 T01970166  RH  086%=      5-min Rain = 0

Page generated in 0.009 seconds.